Terminal Aerodrome Forecast
Issued by NWS

Home | Current Version | Previous Version | Text Only | Print | Product List | Glossary On
Versions: 1 2 3 4 5 6 7 8 9 10 11 12 13 14 15 16
418
FTUS41 KCLE 090535
TAFFDY
TAF
KFDY 090535Z 0906/1006 26016KT P6SM -SN SCT015 BKN030
     FM090900 27014KT 6SM -SN BKN015 OVC025
     FM091600 26010KT P6SM OVC035=

USA.gov is the U.S. government's official web portal to all federal, state and local government web resources and services.